createdAt,value
2019-03-18T00:00:17.068Z,5.60
2019-03-18T00:02:46.791Z,5.60
2019-03-18T00:05:16.855Z,5.33
2019-03-18T00:07:44.510Z,5.37
2019-03-18T00:10:15.111Z,5.00
2019-03-18T00:12:42.640Z,5.87
2019-03-18T00:15:10.085Z,5.63
2019-03-18T00:17:37.576Z,6.03
2019-03-18T00:20:05.385Z,5.73
2019-03-18T00:22:33.060Z,5.20
2019-03-18T00:25:01.048Z,5.67
2019-03-18T00:27:30.125Z,6.37
2019-03-18T00:29:58.025Z,6.40
2019-03-18T00:32:25.690Z,4.87
2019-03-18T00:34:56.002Z,4.67
2019-03-18T00:37:23.678Z,6.00
2019-03-18T00:39:52.592Z,6.13
2019-03-18T00:42:27.205Z,4.00
2019-03-18T00:44:59.074Z,5.83
2019-03-18T00:47:38.400Z,5.53
2019-03-18T00:50:12.090Z,5.80
2019-03-18T00:52:44.579Z,6.00
2019-03-18T00:55:16.208Z,4.83
2019-03-18T00:57:43.650Z,6.70
2019-03-18T01:00:13.433Z,5.97
2019-03-18T01:02:42.352Z,6.13
2019-03-18T01:05:16.521Z,4.00
2019-03-18T01:08:21.625Z,5.23
2019-03-18T01:12:10.159Z,5.20
2019-03-18T01:15:27.828Z,5.40
2019-03-18T01:17:54.864Z,5.27
2019-03-18T01:20:26.140Z,3.20
2019-03-18T01:22:53.617Z,5.63
2019-03-18T01:25:23.254Z,5.80
2019-03-18T01:27:57.516Z,5.63
2019-03-18T01:30:25.775Z,5.53
2019-03-18T01:32:58.655Z,4.93
2019-03-18T01:35:26.312Z,5.73
2019-03-18T01:37:57.830Z,5.67
2019-03-18T01:40:25.295Z,5.27
2019-03-18T01:42:56.725Z,5.37
2019-03-18T01:45:40.577Z,5.60
2019-03-18T01:55:34.590Z,5.17
2019-03-18T01:59:04.875Z,4.77
2019-03-18T02:01:52.929Z,4.10
2019-03-18T02:04:38.315Z,4.90
2019-03-18T02:07:18.305Z,4.73
2019-03-18T02:10:06.504Z,5.50
2019-03-18T02:12:56.705Z,5.40
2019-03-18T02:15:36.512Z,4.37
2019-03-18T02:18:04.460Z,5.67
2019-03-18T02:20:32.204Z,5.00
2019-03-18T02:23:05.939Z,4.77
2019-03-18T02:25:46.136Z,4.90
2019-03-18T02:28:15.232Z,5.00
2019-03-18T02:30:43.085Z,4.43
2019-03-18T02:33:10.890Z,4.93
2019-03-18T02:35:57.169Z,3.93
2019-03-18T02:38:27.720Z,4.77
2019-03-18T02:41:37.312Z,4.27
2019-03-18T02:44:16.069Z,4.77
2019-03-18T02:47:00.278Z,4.60
2019-03-18T02:49:38.186Z,4.70
2019-03-18T02:55:21.259Z,5.00
2019-03-18T02:58:01.593Z,5.33
2019-03-18T03:00:36.632Z,5.57
2019-03-18T03:03:04.401Z,5.33
2019-03-18T03:05:32.162Z,5.20
2019-03-18T03:08:02.188Z,4.20
2019-03-18T03:10:29.566Z,5.63
2019-03-18T03:12:59.399Z,6.53
2019-03-18T03:15:30.325Z,4.73
2019-03-18T03:17:57.884Z,6.73
2019-03-18T03:20:25.345Z,7.90
2019-03-18T03:22:55.601Z,6.40
2019-03-18T03:25:24.922Z,7.37
2019-03-18T03:27:54.850Z,7.20
2019-03-18T03:30:22.411Z,7.37
2019-03-18T03:32:49.945Z,9.40
2019-03-18T03:35:17.351Z,7.00
2019-03-18T03:37:44.888Z,9.23
2019-03-18T03:40:12.541Z,11.03
2019-03-18T03:42:39.994Z,11.20
2019-03-18T03:45:07.399Z,10.40
2019-03-18T03:47:34.936Z,11.67
2019-03-18T03:50:02.360Z,12.27
2019-03-18T03:52:29.949Z,13.00
2019-03-18T03:54:58.925Z,12.10
2019-03-18T03:57:26.561Z,11.40
2019-03-18T03:59:55.691Z,12.50
2019-03-18T04:02:23.267Z,12.33
2019-03-18T04:04:50.815Z,12.97
2019-03-18T04:07:18.340Z,13.00
2019-03-18T04:09:45.757Z,13.67
2019-03-18T04:12:13.269Z,11.93
2019-03-18T04:14:40.761Z,14.20
2019-03-18T04:17:13.469Z,13.33
2019-03-18T04:19:47.488Z,12.30
2019-03-18T04:22:15.508Z,14.27
2019-03-18T04:24:45.654Z,14.80
2019-03-18T04:27:13.879Z,15.43
2019-03-18T04:29:41.633Z,15.50
2019-03-18T04:32:12.644Z,15.40
2019-03-18T04:34:40.583Z,14.67
2019-03-18T04:37:08.274Z,17.90
2019-03-18T04:39:35.735Z,17.30
2019-03-18T04:42:03.450Z,15.60
2019-03-18T04:44:31.231Z,16.80
2019-03-18T04:46:58.847Z,17.13
2019-03-18T04:49:26.305Z,16.07
2019-03-18T04:51:53.757Z,18.23
2019-03-18T04:54:21.343Z,16.43
2019-03-18T04:56:49.059Z,16.33
2019-03-18T04:59:16.526Z,16.60
2019-03-18T05:01:43.929Z,15.63
2019-03-18T05:04:13.525Z,16.33
2019-03-18T05:06:40.906Z,16.53
2019-03-18T05:09:08.490Z,14.47
2019-03-18T05:11:36.925Z,14.23
2019-03-18T05:14:04.348Z,14.70
2019-03-18T05:16:31.769Z,15.67
2019-03-18T05:18:59.315Z,14.20
2019-03-18T05:21:26.681Z,13.90
2019-03-18T05:23:54.122Z,14.37
2019-03-18T05:26:22.449Z,13.83
2019-03-18T05:28:50.136Z,14.20
2019-03-18T05:31:17.557Z,14.40
2019-03-18T05:33:45.021Z,14.90
2019-03-18T05:36:12.391Z,13.50
2019-03-18T05:38:39.915Z,15.97
2019-03-18T05:41:07.337Z,12.57
2019-03-18T05:43:34.751Z,13.87
2019-03-18T05:46:02.243Z,14.30
2019-03-18T05:48:31.242Z,11.33
2019-03-18T05:50:59.536Z,13.27
2019-03-18T05:53:26.998Z,14.60
2019-03-18T05:55:57.899Z,13.23
2019-03-18T05:58:26.628Z,11.70
2019-03-18T06:00:54.045Z,11.30
2019-03-18T06:03:21.540Z,13.93
2019-03-18T06:05:49.005Z,13.17
2019-03-18T06:08:16.766Z,11.67
2019-03-18T06:10:48.437Z,13.27
2019-03-18T06:13:17.494Z,13.60
2019-03-18T06:15:45.385Z,12.63
2019-03-18T06:18:12.911Z,12.87
2019-03-18T06:20:40.432Z,10.87
2019-03-18T06:23:07.957Z,11.80
2019-03-18T06:25:35.419Z,13.47
2019-03-18T06:28:06.150Z,14.70
2019-03-18T06:30:33.543Z,13.30
2019-03-18T06:33:01.092Z,13.20
2019-03-18T06:35:28.516Z,13.73
2019-03-18T06:37:56.100Z,13.30
2019-03-18T06:40:24.420Z,11.93
2019-03-18T06:42:52.136Z,12.20
2019-03-18T06:45:19.651Z,12.97
2019-03-18T06:47:47.214Z,12.03
2019-03-18T06:50:37.463Z,12.13
2019-03-18T06:52:52.761Z,13.63
2019-03-18T06:55:27.388Z,9.50
2019-03-18T06:57:57.752Z,10.80
2019-03-18T07:00:25.130Z,10.97
2019-03-18T07:02:52.540Z,11.03
2019-03-18T07:05:19.948Z,12.07
2019-03-18T07:07:47.341Z,13.23
2019-03-18T07:10:14.988Z,13.73
2019-03-18T07:12:42.435Z,8.60
2019-03-18T07:15:10.131Z,13.13
2019-03-18T07:17:37.611Z,12.10
2019-03-18T07:20:06.041Z,13.30
2019-03-18T07:22:42.077Z,11.17
2019-03-18T07:25:09.263Z,10.30
2019-03-18T07:27:36.675Z,12.70
2019-03-18T07:30:04.736Z,11.50
2019-03-18T07:32:32.110Z,11.30
2019-03-18T07:34:59.667Z,11.60
2019-03-18T07:37:27.150Z,12.47
2019-03-18T07:39:54.629Z,11.70
2019-03-18T07:42:22.070Z,11.47
2019-03-18T07:44:49.473Z,11.83
2019-03-18T07:47:33.114Z,10.20
2019-03-18T07:50:03.090Z,10.57
2019-03-18T07:52:30.483Z,8.87
2019-03-18T07:55:03.675Z,9.90
2019-03-18T07:57:32.692Z,10.43
2019-03-18T08:00:00.467Z,10.30
2019-03-18T08:02:27.825Z,12.83
2019-03-18T08:04:55.380Z,9.33
2019-03-18T08:07:22.845Z,10.47
2019-03-18T08:09:50.340Z,10.90
2019-03-18T08:12:18.111Z,9.57
2019-03-18T08:14:45.581Z,10.57
2019-03-18T08:17:15.224Z,8.83
2019-03-18T08:19:42.727Z,9.37
2019-03-18T08:22:10.971Z,8.57
2019-03-18T08:24:38.430Z,7.83
2019-03-18T08:27:05.961Z,8.83
2019-03-18T08:29:48.140Z,7.03
2019-03-18T08:33:01.401Z,7.50
2019-03-18T08:35:34.838Z,7.77
2019-03-18T08:38:19.171Z,7.30
2019-03-18T08:40:54.781Z,7.00
2019-03-18T08:43:24.250Z,6.50
2019-03-18T08:45:51.753Z,7.23
2019-03-18T08:48:20.753Z,6.63
2019-03-18T08:50:48.307Z,6.27
2019-03-18T08:53:15.701Z,5.33
2019-03-18T08:55:43.230Z,5.70
2019-03-18T08:58:10.834Z,7.33
2019-03-18T09:00:38.514Z,4.83
2019-03-18T09:03:05.994Z,5.30
2019-03-18T09:05:36.703Z,5.13
2019-03-18T09:08:07.952Z,5.53
2019-03-18T09:10:35.847Z,4.27
2019-03-18T09:13:10.875Z,3.73
2019-03-18T09:21:51.152Z,5.20
2019-03-18T09:24:18.812Z,4.60
2019-03-18T09:27:01.807Z,4.67
2019-03-18T09:29:25.693Z,3.73
2019-03-18T09:31:53.355Z,3.73
2019-03-18T09:34:21.072Z,4.23
2019-03-18T09:36:48.572Z,4.00
2019-03-18T09:39:16.156Z,3.83
2019-03-18T09:41:43.784Z,4.57
2019-03-18T09:44:11.392Z,4.50
2019-03-18T09:46:39.172Z,3.43
2019-03-18T09:52:09.365Z,3.73
2019-03-18T09:54:44.529Z,3.67
2019-03-18T09:58:19.791Z,4.00
2019-03-18T10:00:59.583Z,3.60
2019-03-18T10:03:34.171Z,3.53
2019-03-18T10:06:05.632Z,3.13
2019-03-18T10:08:33.992Z,3.30
2019-03-18T10:11:03.092Z,3.53
2019-03-18T10:13:30.852Z,3.90
2019-03-18T10:15:58.475Z,3.47
2019-03-18T10:18:26.038Z,3.30
2019-03-18T10:20:53.772Z,4.20
2019-03-18T10:23:21.542Z,2.77
2019-03-18T10:25:49.153Z,2.73
2019-03-18T10:28:16.776Z,3.73
2019-03-18T10:30:44.432Z,2.93
2019-03-18T10:33:11.953Z,2.47
2019-03-18T10:35:39.576Z,3.13
2019-03-18T10:38:07.074Z,2.90
2019-03-18T10:40:34.671Z,3.50
2019-03-18T10:43:02.393Z,2.37
2019-03-18T10:45:29.972Z,2.80
2019-03-18T10:47:57.451Z,2.80
2019-03-18T10:50:25.312Z,2.53
2019-03-18T10:52:53.139Z,2.33
2019-03-18T10:55:21.089Z,1.87
2019-03-18T10:57:48.833Z,2.07
2019-03-18T11:00:16.998Z,2.73
2019-03-18T11:02:45.518Z,2.60
2019-03-18T11:05:13.894Z,2.37
2019-03-18T11:07:41.498Z,2.13
2019-03-18T11:10:14.994Z,3.57
2019-03-18T11:12:42.656Z,1.93
2019-03-18T11:15:11.332Z,2.00
2019-03-18T11:17:39.136Z,2.07
2019-03-18T11:20:07.553Z,1.87
2019-03-18T11:22:35.171Z,2.50
2019-03-18T11:25:02.776Z,1.67
2019-03-18T11:27:30.395Z,1.90
2019-03-18T11:29:58.422Z,1.43
2019-03-18T11:32:26.011Z,2.10
2019-03-18T11:34:53.534Z,3.00
2019-03-18T11:37:21.112Z,2.20
2019-03-18T11:39:48.714Z,1.10
2019-03-18T11:42:16.273Z,1.63
2019-03-18T11:44:44.193Z,1.83
2019-03-18T11:47:16.311Z,2.00
2019-03-18T11:49:41.374Z,1.30
2019-03-18T11:52:08.973Z,1.60
2019-03-18T11:54:36.624Z,1.43
2019-03-18T11:57:04.473Z,1.40
2019-03-18T11:59:32.013Z,2.30
2019-03-18T12:01:59.553Z,1.20
2019-03-18T12:04:27.132Z,1.67
2019-03-18T12:06:54.735Z,1.50
2019-03-18T12:09:22.254Z,1.57
2019-03-18T12:11:49.892Z,3.03
2019-03-18T12:14:17.452Z,1.03
2019-03-18T12:16:45.052Z,1.30
2019-03-18T12:19:12.672Z,1.50
2019-03-18T12:21:40.292Z,1.50
2019-03-18T12:24:09.452Z,1.23
2019-03-18T12:26:37.170Z,1.47
2019-03-18T12:29:08.053Z,1.50
2019-03-18T12:31:35.812Z,1.80
2019-03-18T12:34:03.435Z,2.37
2019-03-18T12:36:31.039Z,2.07
2019-03-18T12:38:58.589Z,1.63
2019-03-18T12:41:26.195Z,1.73
2019-03-18T12:44:14.792Z,2.40
2019-03-18T12:46:42.355Z,2.17
2019-03-18T12:49:09.993Z,1.90
2019-03-18T12:52:32.131Z,2.23
2019-03-18T12:58:56.713Z,2.10
2019-03-18T13:01:29.783Z,2.20
2019-03-18T13:03:56.313Z,1.97
2019-03-18T13:06:23.894Z,1.80
2019-03-18T13:09:01.972Z,2.30
2019-03-18T13:11:30.632Z,1.90
2019-03-18T13:13:58.092Z,2.00
2019-03-18T13:16:25.753Z,1.80
2019-03-18T13:18:53.353Z,1.47
2019-03-18T13:21:20.912Z,1.90
2019-03-18T13:23:48.632Z,2.00
2019-03-18T13:26:16.504Z,1.90
2019-03-18T13:28:44.073Z,2.77
2019-03-18T13:31:13.511Z,1.43
2019-03-18T13:33:45.012Z,1.77
2019-03-18T13:36:12.853Z,2.40
2019-03-18T13:38:40.831Z,2.00
2019-03-18T13:41:08.292Z,1.97
2019-03-18T13:43:35.824Z,1.80
2019-03-18T13:46:03.730Z,1.00
2019-03-18T13:48:31.293Z,1.37
2019-03-18T13:50:58.872Z,1.00
2019-03-18T13:53:27.414Z,2.07
2019-03-18T13:55:55.137Z,1.30
2019-03-18T13:58:23.014Z,1.97
2019-03-18T14:00:50.631Z,2.10
2019-03-18T14:03:18.800Z,2.40
2019-03-18T14:05:46.373Z,1.53
2019-03-18T14:08:14.112Z,1.47
2019-03-18T14:10:42.411Z,1.03
2019-03-18T14:13:10.179Z,1.00
2019-03-18T14:15:37.715Z,1.30
2019-03-18T14:18:05.413Z,1.67
2019-03-18T14:20:34.932Z,1.73
2019-03-18T14:23:05.473Z,2.03
2019-03-18T14:25:33.015Z,1.50
2019-03-18T14:28:00.618Z,1.97
2019-03-18T14:30:28.531Z,1.37
2019-03-18T14:32:56.174Z,2.53
2019-03-18T14:35:23.813Z,2.67
2019-03-18T14:37:51.493Z,2.20
2019-03-18T14:40:19.157Z,2.00
2019-03-18T14:42:46.793Z,1.70
2019-03-18T14:45:18.813Z,1.80
2019-03-18T14:47:54.863Z,2.27
2019-03-18T14:50:22.895Z,1.43
2019-03-18T14:52:59.593Z,1.60
2019-03-18T14:55:27.213Z,1.60
2019-03-18T14:57:56.073Z,1.80
2019-03-18T15:00:26.684Z,1.33
2019-03-18T15:02:54.553Z,1.87
2019-03-18T15:05:22.514Z,2.13
2019-03-18T15:07:57.774Z,1.53
2019-03-18T15:11:34.811Z,2.00
2019-03-18T15:14:02.694Z,1.60
2019-03-18T15:16:34.274Z,1.37
2019-03-18T15:19:01.993Z,2.37
2019-03-18T15:21:29.533Z,2.47
2019-03-18T15:23:57.153Z,1.90
2019-03-18T15:26:25.013Z,1.87
2019-03-18T15:28:52.993Z,1.70
2019-03-18T15:31:20.802Z,1.73
2019-03-18T15:33:48.514Z,3.23
2019-03-18T15:36:16.185Z,2.37
2019-03-18T15:38:43.793Z,3.10
2019-03-18T15:41:11.422Z,2.13
2019-03-18T15:43:39.212Z,1.80
2019-03-18T15:46:06.932Z,2.07
2019-03-18T15:48:34.636Z,2.13
2019-03-18T15:51:02.825Z,1.33
2019-03-18T15:53:30.562Z,1.33
2019-03-18T15:55:58.287Z,1.97
2019-03-18T15:58:26.095Z,1.83
2019-03-18T16:00:54.041Z,1.30
2019-03-18T16:03:21.834Z,1.70
2019-03-18T16:05:50.093Z,9.50
2019-03-18T16:08:21.867Z,2.27
2019-03-18T16:11:07.763Z,2.33
2019-03-18T16:13:35.571Z,2.10
2019-03-18T16:16:03.477Z,1.83
2019-03-18T16:18:31.382Z,1.70
2019-03-18T16:21:38.347Z,1.50
2019-03-18T16:24:06.062Z,1.47
2019-03-18T16:26:34.007Z,2.40
2019-03-18T16:29:03.316Z,1.40
2019-03-18T16:31:31.162Z,1.33
2019-03-18T16:33:59.137Z,1.93
2019-03-18T16:36:27.110Z,3.50
2019-03-18T16:38:55.237Z,1.80
2019-03-18T16:41:23.055Z,2.07
2019-03-18T16:43:51.036Z,1.90
2019-03-18T16:46:18.772Z,2.20
2019-03-18T16:48:46.706Z,2.77
2019-03-18T16:51:14.737Z,1.70
2019-03-18T16:53:42.421Z,1.60
2019-03-18T16:56:10.149Z,1.40
2019-03-18T16:58:37.837Z,1.83
2019-03-18T17:01:05.771Z,1.50
2019-03-18T17:03:33.461Z,1.37
2019-03-18T17:06:01.235Z,1.77
2019-03-18T17:08:29.022Z,2.10
2019-03-18T17:10:56.848Z,1.43
2019-03-18T17:13:24.562Z,2.20
2019-03-18T17:15:52.852Z,3.20
2019-03-18T17:18:20.667Z,2.23
2019-03-18T17:20:48.512Z,1.47
2019-03-18T17:23:16.277Z,3.20
2019-03-18T17:25:44.130Z,1.93
2019-03-18T17:28:12.107Z,1.70
2019-03-18T17:30:39.797Z,1.67
2019-03-18T17:33:07.592Z,1.60
2019-03-18T17:35:35.532Z,1.97
2019-03-18T17:38:03.431Z,1.70
2019-03-18T17:40:31.287Z,1.60
2019-03-18T17:42:59.481Z,1.93
2019-03-18T17:45:28.243Z,1.90
2019-03-18T17:47:56.497Z,1.80
2019-03-18T17:50:24.692Z,1.60
2019-03-18T17:53:02.297Z,2.23
2019-03-18T17:55:23.279Z,1.93
2019-03-18T17:57:51.137Z,2.50
2019-03-18T18:00:22.532Z,2.37
2019-03-18T18:02:52.569Z,1.90
2019-03-18T18:05:20.166Z,2.27
2019-03-18T18:07:48.071Z,3.07
2019-03-18T18:10:16.427Z,2.70
2019-03-18T18:12:44.111Z,1.80
2019-03-18T18:15:12.059Z,1.70
2019-03-18T18:17:39.856Z,2.47
2019-03-18T18:20:07.901Z,1.77
2019-03-18T18:22:36.016Z,2.50
2019-03-18T18:25:09.653Z,2.33
2019-03-18T18:27:37.541Z,2.83
2019-03-18T18:30:06.207Z,1.87
2019-03-18T18:32:34.020Z,2.27
2019-03-18T18:35:03.206Z,2.87
2019-03-18T18:37:30.932Z,1.77
2019-03-18T18:39:58.662Z,1.53
2019-03-18T18:42:26.496Z,2.33
2019-03-18T18:44:54.526Z,1.83
2019-03-18T18:47:22.406Z,2.20
2019-03-18T18:49:50.296Z,2.30
2019-03-18T18:52:18.186Z,1.80
2019-03-18T18:54:45.967Z,2.10
2019-03-18T18:57:13.827Z,1.83
2019-03-18T18:59:42.136Z,2.00
2019-03-18T19:02:09.931Z,1.60
2019-03-18T19:04:37.637Z,1.87
2019-03-18T19:07:05.626Z,2.30
2019-03-18T19:09:33.444Z,2.50
2019-03-18T19:12:01.431Z,1.60
2019-03-18T19:14:29.351Z,2.60
2019-03-18T19:16:57.208Z,1.90
2019-03-18T19:19:25.357Z,1.80
2019-03-18T19:21:53.515Z,1.90
2019-03-18T19:24:21.409Z,2.27
2019-03-18T19:26:49.426Z,1.83
2019-03-18T19:29:17.311Z,1.77
2019-03-18T19:31:45.107Z,2.67
2019-03-18T19:34:21.217Z,2.27
2019-03-18T19:36:51.972Z,2.50
2019-03-18T19:39:19.934Z,2.33
2019-03-18T19:41:49.309Z,2.13
2019-03-18T19:44:17.219Z,2.80
2019-03-18T19:46:45.183Z,2.07
2019-03-18T19:49:15.172Z,2.27
2019-03-18T19:51:45.882Z,3.93
2019-03-18T19:54:13.697Z,1.90
2019-03-18T19:56:41.603Z,1.90
2019-03-18T19:59:09.616Z,2.17
2019-03-18T20:01:37.611Z,2.20
2019-03-18T20:04:06.115Z,2.50
2019-03-18T20:06:38.991Z,2.40
2019-03-18T20:09:08.370Z,2.50
2019-03-18T20:11:38.891Z,2.00
2019-03-18T20:14:43.039Z,2.27
2019-03-18T20:17:13.327Z,2.33
2019-03-18T20:19:41.400Z,3.60
2019-03-18T20:22:10.586Z,2.67
2019-03-18T20:25:16.138Z,1.90
2019-03-18T20:27:44.612Z,2.73
2019-03-18T20:30:16.374Z,2.50
2019-03-18T20:32:44.243Z,3.33
2019-03-18T20:35:12.911Z,3.37
2019-03-18T20:37:40.747Z,2.93
2019-03-18T20:40:10.458Z,2.87
2019-03-18T20:42:38.292Z,2.40
2019-03-18T20:46:30.211Z,2.80
2019-03-18T20:48:29.795Z,2.77
2019-03-18T20:51:05.221Z,3.23
2019-03-18T20:53:40.456Z,2.80
2019-03-18T20:56:08.227Z,2.47
2019-03-18T20:58:36.039Z,2.63
2019-03-18T21:01:04.291Z,3.37
2019-03-18T21:03:31.947Z,2.50
2019-03-18T21:05:59.816Z,3.57
2019-03-18T21:08:28.001Z,2.90
2019-03-18T21:10:55.779Z,3.27
2019-03-18T21:13:23.696Z,2.50
2019-03-18T21:15:51.514Z,2.93
2019-03-18T21:18:19.391Z,2.57
2019-03-18T21:20:47.336Z,2.97
2019-03-18T21:23:18.511Z,2.63
2019-03-18T21:25:46.187Z,3.20
2019-03-18T21:28:16.640Z,3.33
2019-03-18T21:30:44.339Z,3.47
2019-03-18T21:33:12.433Z,2.80
2019-03-18T21:35:46.011Z,2.80
2019-03-18T21:38:20.607Z,3.10
2019-03-18T21:40:53.514Z,2.20
2019-03-18T21:43:21.191Z,2.67
2019-03-18T21:45:48.884Z,3.47
2019-03-18T21:48:17.032Z,3.30
2019-03-18T21:50:44.694Z,3.13
2019-03-18T21:53:12.463Z,2.93
2019-03-18T21:55:40.159Z,3.17
2019-03-18T21:58:07.736Z,2.83
2019-03-18T22:00:35.251Z,3.27
2019-03-18T22:03:02.718Z,3.20
2019-03-18T22:05:30.145Z,2.97
2019-03-18T22:07:57.571Z,3.30
2019-03-18T22:10:24.968Z,3.03
2019-03-18T22:12:52.376Z,3.40
2019-03-18T22:15:19.732Z,2.80
2019-03-18T22:17:47.134Z,2.57
2019-03-18T22:20:14.635Z,3.27
2019-03-18T22:22:42.151Z,3.07
2019-03-18T22:25:09.871Z,4.23
2019-03-18T22:27:37.301Z,3.00
2019-03-18T22:30:04.946Z,4.17
2019-03-18T22:32:32.351Z,3.13
2019-03-18T22:34:59.737Z,2.60
2019-03-18T22:37:27.170Z,2.47
2019-03-18T22:39:54.576Z,2.47
2019-03-18T22:42:21.991Z,3.30
2019-03-18T22:44:49.371Z,2.70
2019-03-18T22:47:16.803Z,3.70
2019-03-18T22:49:44.205Z,2.60
2019-03-18T22:52:11.573Z,2.93
2019-03-18T22:54:38.987Z,3.43
2019-03-18T22:57:06.476Z,3.20
2019-03-18T22:59:33.881Z,3.30
2019-03-18T23:02:01.236Z,3.30
2019-03-18T23:04:28.656Z,2.90
2019-03-18T23:06:56.112Z,2.63
2019-03-18T23:09:23.567Z,2.73
2019-03-18T23:11:50.949Z,2.83
2019-03-18T23:14:18.346Z,2.73
2019-03-18T23:16:45.906Z,2.00
2019-03-18T23:19:13.382Z,3.07
2019-03-18T23:21:40.739Z,3.40
2019-03-18T23:24:08.667Z,3.03
2019-03-18T23:26:36.058Z,2.83
2019-03-18T23:29:04.674Z,3.73
2019-03-18T23:31:32.032Z,3.50
2019-03-18T23:33:59.475Z,2.90
2019-03-18T23:36:27.451Z,3.10
2019-03-18T23:38:57.231Z,3.30
2019-03-18T23:41:30.302Z,2.57
2019-03-18T23:43:58.177Z,2.80
2019-03-18T23:46:29.912Z,2.70
2019-03-18T23:48:58.556Z,4.37
2019-03-18T23:51:25.951Z,2.83
2019-03-18T23:53:53.817Z,3.00
2019-03-18T23:56:28.001Z,2.93
2019-03-18T23:58:55.457Z,3.57
